Time;durP1;ratioP1;P1;durP2;ratioP2;P2;SDS_P1;SDS_P2;PMS_P1;PMS_P2;Temp;Humidity;BMP_temperature;BMP_pressure;BME280_temperature;BME280_humidity;BME280_pressure;Samples;Min_cycle;Max_cycle;Signal;HPM_P1;HPM_P2
2024/01/21 00:00:32;;;;;;;14.88;8.52;;;;;;;0.48;62.41;100057.41;5088115;28;20597;-69
2024/01/21 00:02:57;;;;;;;14.82;8.40;;;;;;;0.44;62.08;100061.78;5090677;28;20027;-69
2024/01/21 00:05:23;;;;;;;15.73;8.20;;;;;;;0.30;62.97;100064.72;5100084;28;20030;-69
2024/01/21 00:07:51;;;;;;;15.15;8.45;;;;;;;0.31;62.94;100073.22;5087563;28;20501;-69
2024/01/21 00:10:17;;;;;;;15.32;9.40;;;;;;;0.29;63.26;100057.94;5097070;28;20122;-68
2024/01/21 00:12:44;;;;;;;13.85;8.27;;;;;;;0.33;63.55;100053.59;5102652;28;20023;-70
2024/01/21 00:15:12;;;;;;;13.05;8.68;;;;;;;0.16;62.86;100051.50;5100825;28;20229;-69
2024/01/21 00:17:37;;;;;;;15.27;8.30;;;;;;;0.24;64.93;100059.81;5101210;28;20035;-70
2024/01/21 00:20:04;;;;;;;14.13;8.95;;;;;;;0.10;64.15;100041.44;5090730;28;20030;-70
2024/01/21 00:22:29;;;;;;;14.18;8.13;;;;;;;-0.29;64.54;99976.03;5103388;28;20042;-70
2024/01/21 00:24:57;;;;;;;16.52;8.23;;;;;;;0.15;64.26;100034.47;5093139;28;20812;-69
2024/01/21 00:27:22;;;;;;;13.63;7.85;;;;;;;0.20;65.09;100050.50;5096020;28;20051;-70
2024/01/21 00:29:47;;;;;;;11.98;7.07;;;;;;;0.08;64.40;100044.03;5087599;28;20365;-69
2024/01/21 00:32:13;;;;;;;14.30;8.07;;;;;;;0.07;65.32;100057.69;5099404;28;20562;-70
2024/01/21 00:34:38;;;;;;;13.35;7.22;;;;;;;0.05;64.97;100046.66;5094639;28;20063;-69
2024/01/21 00:37:06;;;;;;;15.55;7.43;;;;;;;-0.08;65.34;100032.56;5089443;28;20462;-68
2024/01/21 00:39:33;;;;;;;14.07;7.88;;;;;;;-0.10;64.98;100049.66;5084654;28;20843;-69
2024/01/21 00:41:58;;;;;;;13.93;7.63;;;;;;;-0.30;65.02;100051.03;5102733;28;20047;-69
2024/01/21 00:44:26;;;;;;;14.70;8.07;;;;;;;-0.60;66.35;100042.47;5097702;28;20705;-68
2024/01/21 00:46:54;;;;;;;12.02;7.28;;;;;;;-0.56;67.86;100046.63;5106609;28;20027;-70
2024/01/21 00:49:21;;;;;;;13.25;8.30;;;;;;;-0.57;68.22;100031.31;5080027;27;20047;-69
2024/01/21 00:51:49;;;;;;;13.75;7.97;;;;;;;-0.42;68.24;100041.13;5097130;27;20031;-69
2024/01/21 00:54:19;;;;;;;14.88;7.38;;;;;;;-0.31;68.39;100041.72;5091448;27;20406;-69
2024/01/21 00:56:44;;;;;;;14.40;7.70;;;;;;;-0.43;67.95;100057.34;5109463;27;20695;-68
2024/01/21 00:59:12;;;;;;;13.63;7.72;;;;;;;-0.44;68.31;100046.31;5108005;27;20537;-70
2024/01/21 01:01:38;;;;;;;13.52;7.15;;;;;;;-0.50;67.61;100018.34;5087532;27;20103;-70
2024/01/21 01:04:05;;;;;;;11.57;6.43;;;;;;;-0.66;67.78;100002.59;5107434;27;20417;-69
2024/01/21 01:06:31;;;;;;;12.05;7.13;;;;;;;-0.37;68.01;100059.75;5099570;27;20031;-69
2024/01/21 01:08:56;;;;;;;13.43;6.90;;;;;;;-0.65;68.71;100059.63;5092516;27;20115;-71
2024/01/21 01:11:22;;;;;;;14.95;6.65;;;;;;;-0.58;68.00;100058.59;5105919;27;20027;-69
2024/01/21 01:13:47;;;;;;;12.63;6.40;;;;;;;-0.56;69.25;100056.00;5093318;27;20583;-68
2024/01/21 01:16:13;;;;;;;13.63;6.75;;;;;;;-0.51;69.95;100059.25;5100254;27;21222;-69
2024/01/21 01:18:38;;;;;;;13.50;6.38;;;;;;;-0.81;70.12;100002.97;5097575;27;20111;-72
2024/01/21 01:21:04;;;;;;;10.02;5.97;;;;;;;-0.39;70.11;100074.28;5098200;27;20142;-68
2024/01/21 01:23:31;;;;;;;11.23;6.43;;;;;;;-0.48;70.04;100057.47;5092257;27;20036;-68
2024/01/21 01:25:57;;;;;;;10.38;6.20;;;;;;;-0.40;69.66;100062.41;5095707;27;20055;-68
2024/01/21 01:28:22;;;;;;;9.82;5.97;;;;;;;-0.56;69.62;100043.22;5090432;27;20445;-70
2024/01/21 01:30:47;;;;;;;11.20;6.25;;;;;;;-0.56;70.14;100054.28;5094290;27;20038;-69
2024/01/21 01:33:15;;;;;;;11.00;6.40;;;;;;;-0.52;69.63;100057.59;5093218;27;20139;-70
2024/01/21 01:35:43;;;;;;;13.05;5.93;;;;;;;-0.52;69.78;100055.88;5097261;27;20043;-70
2024/01/21 01:38:12;;;;;;;11.77;6.28;;;;;;;-0.48;70.16;100054.06;5104916;27;20028;-70
2024/01/21 01:40:37;;;;;;;11.77;6.70;;;;;;;-0.41;70.23;100053.03;5108234;27;20035;-69
2024/01/21 01:43:03;;;;;;;10.98;6.00;;;;;;;-0.60;69.30;100050.97;5091591;27;20067;-69
2024/01/21 01:45:29;;;;;;;11.60;6.03;;;;;;;-0.76;69.27;100053.94;5107286;27;20034;-70
2024/01/21 01:47:57;;;;;;;11.05;6.30;;;;;;;-0.67;69.46;100056.28;5096864;27;20053;-69
2024/01/21 01:50:26;;;;;;;12.20;6.63;;;;;;;-0.67;69.42;100057.09;5084331;27;20047;-69
2024/01/21 01:52:52;;;;;;;10.95;6.55;;;;;;;-0.75;69.94;100037.72;5104706;27;20680;-69
2024/01/21 01:55:20;;;;;;;10.70;6.32;;;;;;;-0.74;70.05;100049.63;5093995;27;20023;-70
2024/01/21 01:57:46;;;;;;;11.85;6.55;;;;;;;-0.79;72.02;100039.53;5106708;27;20920;-70
2024/01/21 02:00:12;;;;;;;13.27;6.63;;;;;;;-1.16;71.23;99964.66;5112238;27;20023;-70
2024/01/21 02:02:42;;;;;;;11.45;6.40;;;;;;;-0.71;71.34;100044.44;5091890;27;20268;-68
2024/01/21 02:05:08;;;;;;;11.73;6.03;;;;;;;-0.89;70.72;100036.38;5087759;27;20027;-69
2024/01/21 02:07:33;;;;;;;11.43;6.07;;;;;;;-0.79;70.64;100040.34;5087196;27;20039;-70
2024/01/21 02:10:02;;;;;;;10.00;5.82;;;;;;;-1.32;71.35;99963.34;5101892;27;20023;-71
2024/01/21 02:12:28;;;;;;;12.88;5.78;;;;;;;-1.00;71.01;100028.97;5106438;27;20722;-70
2024/01/21 02:14:54;;;;;;;10.32;5.97;;;;;;;-1.05;70.65;100033.34;5092973;27;20028;-68
2024/01/21 02:17:25;;;;;;;11.00;5.97;;;;;;;-0.94;70.26;100047.56;5091987;27;20031;-67
2024/01/21 02:19:50;;;;;;;11.30;5.80;;;;;;;-0.94;71.11;100043.28;5085793;27;20020;-70
2024/01/21 02:22:16;;;;;;;11.88;5.90;;;;;;;-0.97;71.90;100043.34;5092591;27;20062;-68
2024/01/21 02:24:44;;;;;;;12.40;5.97;;;;;;;-0.94;71.13;100056.06;5105058;27;20633;-68
2024/01/21 02:27:09;;;;;;;11.25;5.90;;;;;;;-1.05;73.49;100052.94;5089765;27;20031;-68
2024/01/21 02:29:35;;;;;;;12.30;6.28;;;;;;;-1.12;71.59;100029.25;5086683;27;20408;-70
2024/01/21 02:32:03;;;;;;;11.07;6.15;;;;;;;-1.15;72.58;100049.75;5085353;27;20514;-70
2024/01/21 02:34:28;;;;;;;13.55;7.00;;;;;;;-1.07;72.49;100060.63;5091641;27;20062;-69
2024/01/21 02:36:53;;;;;;;10.32;6.45;;;;;;;-1.74;72.26;99986.44;5101625;27;20818;-70
2024/01/21 02:39:19;;;;;;;10.43;6.13;;;;;;;-1.22;71.32;100043.94;5104715;27;20027;-69
2024/01/21 02:41:44;;;;;;;10.70;6.00;;;;;;;-1.16;72.02;100058.28;5087408;27;20079;-69
2024/01/21 02:44:10;;;;;;;11.90;6.78;;;;;;;-1.08;71.93;100058.94;5087375;27;20882;-70
2024/01/21 02:46:35;;;;;;;12.88;6.90;;;;;;;-1.11;71.43;100050.50;5097585;27;20752;-70
2024/01/21 02:49:00;;;;;;;11.88;5.85;;;;;;;-1.42;71.85;100046.94;5092214;27;20031;-70
2024/01/21 02:51:26;;;;;;;9.70;5.85;;;;;;;-1.31;73.59;100049.28;5087577;28;20039;-68
2024/01/21 02:53:54;;;;;;;11.73;6.38;;;;;;;-1.15;73.87;100047.22;5089436;27;20587;-67
2024/01/21 02:56:23;;;;;;;10.80;5.90;;;;;;;-1.04;73.91;100036.72;5092890;27;20114;-69
2024/01/21 02:58:53;;;;;;;11.60;5.53;;;;;;;-1.13;72.53;100034.38;5101270;27;20032;-69
2024/01/21 03:01:21;;;;;;;12.20;6.65;;;;;;;-1.15;72.73;100039.56;5102476;27;20915;-68
2024/01/21 03:03:46;;;;;;;12.05;6.15;;;;;;;-1.13;73.45;100022.47;5107548;27;20027;-69
2024/01/21 03:06:12;;;;;;;11.15;5.90;;;;;;;-1.31;74.10;99987.19;5087633;27;20071;-69
2024/01/21 03:08:37;;;;;;;10.98;5.47;;;;;;;-1.08;74.88;100030.84;5084192;28;20019;-69
2024/01/21 03:11:03;;;;;;;11.95;6.03;;;;;;;-1.08;75.43;100051.28;5103551;27;20568;-70
2024/01/21 03:13:28;;;;;;;10.35;5.70;;;;;;;-1.14;75.11;100048.03;5107884;27;20882;-70
2024/01/21 03:15:55;;;;;;;9.77;5.35;;;;;;;-1.55;73.60;99980.06;5095781;27;20687;-70
2024/01/21 03:18:21;;;;;;;10.15;5.85;;;;;;;-1.06;74.12;100051.25;5094877;27;20027;-69
2024/01/21 03:20:51;;;;;;;12.18;5.97;;;;;;;-1.30;74.96;100042.44;5107321;27;20031;-68
2024/01/21 03:23:18;;;;;;;10.15;6.10;;;;;;;-1.22;74.38;100028.63;5083065;27;20031;-71
2024/01/21 03:25:46;;;;;;;12.30;6.07;;;;;;;-1.11;73.49;100040.28;5094099;27;20023;-69
2024/01/21 03:28:12;;;;;;;10.38;6.00;;;;;;;-1.49;73.33;100025.00;5084242;27;20023;-70
2024/01/21 03:30:39;;;;;;;14.07;6.35;;;;;;;-1.85;74.67;99958.63;5085875;27;20622;-69
2024/01/21 03:33:04;;;;;;;12.32;6.20;;;;;;;-1.29;75.59;100034.75;5089427;28;20418;-68
2024/01/21 03:35:29;;;;;;;11.63;5.90;;;;;;;-1.24;75.90;100035.50;5089787;28;20481;-70
2024/01/21 03:37:55;;;;;;;10.50;6.13;;;;;;;-1.26;76.36;100029.59;5107029;27;20039;-69
2024/01/21 03:40:23;;;;;;;11.70;6.20;;;;;;;-1.30;76.30;100020.31;5091143;28;20024;-69
2024/01/21 03:42:51;;;;;;;11.38;6.60;;;;;;;-1.32;75.91;100022.06;5087578;28;20078;-75
2024/01/21 03:45:16;;;;;;;10.25;5.38;;;;;;;-1.75;76.54;99960.09;5086386;28;20015;-70
2024/01/21 03:47:42;;;;;;;13.48;6.10;;;;;;;-1.37;75.41;100027.28;5095700;28;20038;-69
2024/01/21 03:50:08;;;;;;;10.73;5.40;;;;;;;-1.31;75.71;100031.41;5096783;28;20110;-70
2024/01/21 03:52:33;;;;;;;13.05;5.78;;;;;;;-1.42;77.09;100013.78;5104160;28;20052;-70
2024/01/21 03:55:01;;;;;;;11.65;5.82;;;;;;;-1.54;77.29;100019.16;5090684;28;20030;-69
2024/01/21 03:57:27;;;;;;;11.48;5.57;;;;;;;-1.47;77.87;100023.25;5098192;28;20647;-69
2024/01/21 03:59:52;;;;;;;9.20;4.80;;;;;;;-1.37;78.75;100029.84;5096243;28;20020;-70
2024/01/21 04:02:21;;;;;;;8.63;4.55;;;;;;;-1.73;78.84;99954.97;5097102;28;20027;-70
2024/01/21 04:04:46;;;;;;;11.07;5.95;;;;;;;-1.44;79.47;100007.88;5088021;28;20031;-71
2024/01/21 04:07:14;;;;;;;10.70;4.93;;;;;;;-1.21;79.07;100026.91;5098632;28;20453;-72
2024/01/21 04:09:41;;;;;;;9.82;5.25;;;;;;;-1.56;77.81;99957.97;5084993;28;20034;-70
2024/01/21 04:12:14;;;;;;;8.77;4.85;;;;;;;-1.27;77.89;100022.78;5097007;28;20103;-70
2024/01/21 04:14:40;;;;;;;10.23;5.10;;;;;;;-1.24;78.03;100029.53;5104238;28;20027;-70
2024/01/21 04:17:08;;;;;;;8.77;5.10;;;;;;;-1.66;78.37;99948.00;5108619;27;20201;-70
2024/01/21 04:19:33;;;;;;;10.50;4.97;;;;;;;-1.16;77.83;100030.19;5089342;28;20077;-71
2024/01/21 04:21:58;;;;;;;12.05;5.60;;;;;;;-1.64;77.78;99956.47;5097569;28;20161;-68
2024/01/21 04:24:27;;;;;;;9.63;4.45;;;;;;;-1.17;77.98;100038.72;5081928;28;20034;-69
2024/01/21 04:26:52;;;;;;;8.77;4.72;;;;;;;-1.20;77.92;100042.19;5087119;27;20128;-70
2024/01/21 04:29:17;;;;;;;9.02;5.00;;;;;;;-1.29;78.78;100016.06;5093337;27;20507;-70
2024/01/21 04:31:48;;;;;;;11.35;5.70;;;;;;;-1.19;78.11;100027.72;5094765;27;20038;-69
2024/01/21 04:34:17;;;;;;;10.82;5.22;;;;;;;-1.25;77.88;100012.56;5092154;27;20034;-70
2024/01/21 04:53:41;;;;;;;7.68;4.30;;;;;;;-1.24;76.07;100016.75;4898719;28;20067;-69
2024/01/21 04:56:06;;;;;;;8.65;4.80;;;;;;;-1.32;76.54;100016.13;4993004;28;20484;-69
2024/01/21 04:58:34;;;;;;;9.40;5.05;;;;;;;-1.47;77.09;100012.22;4975009;28;20113;-71
2024/01/21 05:01:02;;;;;;;10.23;4.70;;;;;;;-1.41;76.48;100022.25;4992381;28;20022;-71
2024/01/21 05:03:27;;;;;;;9.98;4.90;;;;;;;-1.46;76.27;100013.88;5010597;28;20058;-71
2024/01/21 05:05:53;;;;;;;8.30;4.57;;;;;;;-1.68;76.51;99976.13;4994899;28;20156;-69
2024/01/21 05:08:20;;;;;;;10.80;4.38;;;;;;;-1.45;77.22;100030.88;5012388;28;20400;-70
2024/01/21 05:10:46;;;;;;;9.05;4.53;;;;;;;-1.45;76.26;100029.16;4998966;28;20033;-69
2024/01/21 05:13:11;;;;;;;9.05;4.00;;;;;;;-1.47;76.39;100019.88;4990867;28;20036;-69
2024/01/21 05:15:39;;;;;;;8.40;3.90;;;;;;;-1.69;77.29;100001.66;4996674;28;20029;-69
2024/01/21 05:18:05;;;;;;;9.63;4.20;;;;;;;-1.55;76.99;100012.38;5070731;27;20042;-70
2024/01/21 05:20:30;;;;;;;7.10;3.90;;;;;;;-1.59;77.88;100008.19;5095581;27;20027;-70
2024/01/21 05:22:55;;;;;;;7.63;4.22;;;;;;;-1.59;79.11;100008.19;5080652;27;20536;-70
2024/01/21 05:25:21;;;;;;;7.85;4.13;;;;;;;-1.57;78.20;100002.22;5072832;27;20049;-71
2024/01/21 05:27:49;;;;;;;8.45;4.20;;;;;;;-1.52;77.71;99993.63;5065098;27;20027;-70
2024/01/21 05:30:15;;;;;;;7.72;3.88;;;;;;;-1.61;76.91;99984.44;5075341;27;20585;-70
2024/01/21 05:32:40;;;;;;;8.27;3.90;;;;;;;-1.59;76.78;99992.91;5072387;27;20179;-71
2024/01/21 05:35:07;;;;;;;8.13;4.18;;;;;;;-1.55;76.85;100013.22;5089889;27;20031;-71
2024/01/21 05:37:40;;;;;;;8.63;3.65;;;;;;;-1.67;78.13;100007.56;5082161;27;20134;-69
2024/01/21 05:40:17;;;;;;;8.32;3.97;;;;;;;-1.63;78.19;100016.81;5065074;28;20401;-69
2024/01/21 05:42:42;;;;;;;8.43;4.18;;;;;;;-1.61;77.18;100018.44;5085041;27;20441;-68
2024/01/21 05:45:10;;;;;;;8.55;3.95;;;;;;;-1.64;77.83;100022.78;5081179;27;20027;-69
2024/01/21 05:47:36;;;;;;;7.65;4.57;;;;;;;-1.67;76.95;100018.59;5078045;27;20031;-71
2024/01/21 05:50:03;;;;;;;7.05;3.65;;;;;;;-1.74;76.46;100017.88;5079486;27;20036;-71
2024/01/21 05:52:33;;;;;;;9.05;4.28;;;;;;;-1.97;77.97;100014.97;5078853;27;20049;-69
2024/01/21 05:55:03;;;;;;;8.68;4.30;;;;;;;-1.87;77.21;100020.72;5085235;27;20027;-70
2024/01/21 05:57:30;;;;;;;8.80;4.00;;;;;;;-1.86;76.96;100005.41;5070424;27;20039;-70
2024/01/21 05:59:58;;;;;;;7.45;3.92;;;;;;;-1.69;76.02;100022.88;5078737;27;20452;-69
2024/01/21 06:02:26;;;;;;;9.30;3.92;;;;;;;-1.80;76.51;100029.94;5079922;27;20042;-70
2024/01/21 06:04:54;;;;;;;7.32;3.88;;;;;;;-1.77;76.43;100032.38;5085446;27;20027;-69
2024/01/21 06:07:20;;;;;;;7.43;3.78;;;;;;;-1.97;77.76;100020.91;5091979;27;20446;-69
2024/01/21 06:09:46;;;;;;;7.22;4.18;;;;;;;-2.43;75.72;99947.09;5076621;27;20042;-70
2024/01/21 06:12:11;;;;;;;9.77;3.85;;;;;;;-1.97;75.99;100032.81;5094571;27;20035;-69
2024/01/21 06:14:39;;;;;;;7.68;3.67;;;;;;;-1.98;76.42;100033.69;5087258;28;20031;-72
2024/01/21 06:17:04;;;;;;;7.22;3.53;;;;;;;-1.95;77.40;100043.84;5091962;28;20031;-70
2024/01/21 06:19:32;;;;;;;6.88;3.67;;;;;;;-1.89;76.47;100046.25;5101607;27;20481;-69
2024/01/21 06:21:59;;;;;;;8.65;4.13;;;;;;;-2.32;76.89;99976.59;5099104;27;20080;-70
2024/01/21 06:24:25;;;;;;;7.30;3.20;;;;;;;-1.95;76.72;100036.19;5107632;27;20202;-71
2024/01/21 06:26:54;;;;;;;7.28;3.70;;;;;;;-1.88;75.73;100045.38;5089191;27;20547;-70
2024/01/21 06:29:19;;;;;;;7.72;3.70;;;;;;;-1.91;76.41;100035.25;5094905;28;20032;-69
2024/01/21 06:31:44;;;;;;;8.35;3.95;;;;;;;-1.99;77.02;100030.31;5092784;27;20038;-68
2024/01/21 06:34:10;;;;;;;9.23;3.58;;;;;;;-2.34;78.77;99985.09;5089584;27;20020;-69
2024/01/21 06:36:39;;;;;;;7.60;3.78;;;;;;;-2.00;78.79;100051.56;5100073;27;20115;-70
2024/01/21 06:39:08;;;;;;;7.90;3.72;;;;;;;-1.99;77.82;100048.16;5095749;27;20108;-70
2024/01/21 06:41:33;;;;;;;7.30;3.70;;;;;;;-1.94;78.41;100038.69;5102393;27;20038;-68
2024/01/21 06:43:59;;;;;;;7.07;3.63;;;;;;;-1.92;78.84;100046.28;5100984;27;20027;-70
2024/01/21 06:46:24;;;;;;;7.13;3.80;;;;;;;-1.80;78.38;100047.78;5085695;27;20545;-69
2024/01/21 06:48:50;;;;;;;7.55;4.18;;;;;;;-1.84;78.33;100041.06;5099985;27;20037;-70
2024/01/21 06:51:31;;;;;;;10.52;3.90;;;;;;;-1.87;77.46;100047.06;5092698;27;20027;-68
2024/01/21 06:53:59;;;;;;;7.43;3.45;;;;;;;-1.86;78.39;100046.19;5101371;27;20035;-68
2024/01/21 06:56:25;;;;;;;9.32;4.00;;;;;;;-2.28;78.80;99984.16;5087091;27;20069;-70
2024/01/21 06:58:50;;;;;;;8.02;3.72;;;;;;;-2.02;79.57;100024.44;5086971;28;20119;-69
2024/01/21 07:01:17;;;;;;;7.80;3.50;;;;;;;-1.98;79.61;100036.22;5090924;27;20375;-71
2024/01/21 07:03:42;;;;;;;8.80;3.97;;;;;;;-1.89;80.81;100042.88;5090021;27;20262;-70
2024/01/21 07:06:12;;;;;;;8.73;3.45;;;;;;;-1.85;80.42;100045.31;5085554;27;20031;-70
2024/01/21 07:08:43;;;;;;;7.65;3.55;;;;;;;-1.75;79.50;100044.25;5093489;27;20039;-70
2024/01/21 07:11:11;;;;;;;8.02;3.90;;;;;;;-1.75;79.28;100043.44;5099934;27;20035;-70
2024/01/21 07:13:41;;;;;;;8.15;3.70;;;;;;;-2.13;79.54;99978.75;5090021;27;20037;-72
2024/01/21 07:16:06;;;;;;;6.97;3.67;;;;;;;-1.79;79.10;100050.28;5088491;27;20023;-68
2024/01/21 07:18:32;;;;;;;7.35;3.80;;;;;;;-1.75;79.83;100061.28;5092405;28;20023;-71
2024/01/21 07:20:58;;;;;;;8.77;3.95;;;;;;;-1.79;79.95;100060.50;5079892;27;20130;-68
2024/01/21 07:23:23;;;;;;;7.18;3.58;;;;;;;-1.75;80.36;100069.75;5087141;27;20692;-71
2024/01/21 07:25:51;;;;;;;7.78;3.65;;;;;;;-1.70;80.08;100073.91;5091505;28;20016;-70
2024/01/21 07:28:18;;;;;;;8.40;3.80;;;;;;;-1.70;80.68;100069.66;5096518;27;20114;-70
2024/01/21 07:30:45;;;;;;;6.72;3.47;;;;;;;-1.64;80.75;100073.81;5101762;27;20118;-69
2024/01/21 07:33:13;;;;;;;6.95;3.53;;;;;;;-1.64;79.30;100079.75;5071746;27;20031;-70
2024/01/21 07:35:39;;;;;;;6.63;3.65;;;;;;;-1.61;79.80;100089.03;5086762;28;20031;-69
2024/01/21 07:38:04;;;;;;;8.20;4.07;;;;;;;-1.71;80.60;100073.09;5080083;28;20545;-71
2024/01/21 07:40:31;;;;;;;7.95;3.50;;;;;;;-1.74;79.74;100068.88;5089694;28;20023;-69
2024/01/21 07:42:57;;;;;;;8.75;3.75;;;;;;;-1.74;79.77;100078.25;5094188;27;20031;-71
2024/01/21 07:45:25;;;;;;;9.07;3.55;;;;;;;-1.72;79.77;100081.59;5086523;28;20027;-70
2024/01/21 07:47:52;;;;;;;8.15;3.70;;;;;;;-1.65;79.61;100089.97;5093569;28;20027;-68
2024/01/21 07:50:18;;;;;;;9.10;3.42;;;;;;;-1.69;80.09;100096.00;5097031;27;20019;-70
2024/01/21 07:52:43;;;;;;;8.98;4.05;;;;;;;-1.71;80.33;100088.38;5095916;28;20784;-71
2024/01/21 07:55:09;;;;;;;8.30;3.75;;;;;;;-1.69;80.18;100078.16;5098730;28;20166;-70
2024/01/21 07:57:36;;;;;;;7.38;3.90;;;;;;;-2.07;80.40;100016.03;5098806;27;20042;-70
2024/01/21 08:00:03;;;;;;;7.43;3.53;;;;;;;-1.67;81.22;100084.91;5090511;27;20108;-70
2024/01/21 08:02:31;;;;;;;6.18;3.05;;;;;;;-1.56;78.22;100088.06;5107033;27;20055;-71
2024/01/21 08:04:56;;;;;;;8.32;3.40;;;;;;;-1.53;78.63;100088.88;5101778;27;20049;-71
2024/01/21 08:07:22;;;;;;;6.60;2.92;;;;;;;-1.28;76.81;100096.84;5091955;27;20031;-69
2024/01/21 08:09:52;;;;;;;6.80;3.03;;;;;;;-1.29;76.55;100092.63;5083743;27;20525;-71
2024/01/21 08:12:17;;;;;;;6.57;2.58;;;;;;;-1.14;73.22;100083.78;5108825;27;21048;-69
2024/01/21 08:14:43;;;;;;;5.75;2.63;;;;;;;-0.78;72.01;100108.47;5100845;27;20016;-70
2024/01/21 08:17:08;;;;;;;6.13;3.03;;;;;;;-0.56;71.37;100109.66;5087124;27;20032;-71
2024/01/21 08:19:39;;;;;;;7.57;3.50;;;;;;;-0.61;71.45;100105.47;5086887;27;20036;-71
2024/01/21 08:22:04;;;;;;;9.13;4.13;;;;;;;-0.47;70.79;100114.53;5090800;27;20118;-70
2024/01/21 08:24:30;;;;;;;10.27;4.07;;;;;;;-0.42;70.38;100097.34;5107633;27;20091;-70
2024/01/21 08:26:57;;;;;;;7.78;3.58;;;;;;;-0.72;69.75;100022.34;5101595;27;20023;-70
2024/01/21 08:29:22;;;;;;;13.05;5.45;;;;;;;-0.31;69.97;100090.28;5105385;27;20027;-72
2024/01/21 08:31:48;;;;;;;19.08;6.72;;;;;;;-0.25;69.96;100090.09;5090627;27;20031;-71
2024/01/21 08:34:13;;;;;;;18.13;6.97;;;;;;;-0.15;69.19;100089.88;5102554;27;20034;-70
2024/01/21 08:36:39;;;;;;;16.60;6.40;;;;;;;-0.21;68.75;100088.31;5098364;27;20709;-70
2024/01/21 08:39:05;;;;;;;11.88;4.43;;;;;;;-0.09;68.31;100080.31;5090468;27;20023;-68
2024/01/21 08:41:37;;;;;;;14.10;5.45;;;;;;;0.04;68.16;100085.94;5097192;28;20027;-71
2024/01/21 08:44:03;;;;;;;20.58;9.88;;;;;;;0.04;68.55;100085.06;5099970;27;20600;-68
2024/01/21 08:46:29;;;;;;;15.57;6.93;;;;;;;0.02;68.54;100082.59;5105884;27;20039;-68
2024/01/21 08:48:54;;;;;;;9.57;4.00;;;;;;;0.14;68.99;100074.56;5091276;27;20058;-69
2024/01/21 08:51:22;;;;;;;10.50;5.10;;;;;;;0.15;70.02;100075.41;5099202;27;20034;-70
2024/01/21 08:53:55;;;;;;;12.02;4.93;;;;;;;0.21;70.80;100095.69;5088261;27;20058;-67
2024/01/21 08:56:21;;;;;;;8.07;3.78;;;;;;;-0.16;69.98;100022.56;5090060;27;20113;-68
2024/01/21 08:58:46;;;;;;;7.82;4.03;;;;;;;0.35;69.47;100090.19;5110847;27;20028;-70
2024/01/21 09:01:11;;;;;;;7.22;3.00;;;;;;;0.27;66.30;100085.28;5096464;27;20031;-70
2024/01/21 09:03:39;;;;;;;6.13;2.80;;;;;;;0.33;65.59;100090.25;5092656;27;20043;-70
2024/01/21 09:06:05;;;;;;;5.95;2.50;;;;;;;0.34;65.36;100097.00;5080169;27;20135;-69
2024/01/21 09:08:30;;;;;;;5.63;2.28;;;;;;;0.41;67.28;100091.75;5101889;27;20039;-70
2024/01/21 09:10:58;;;;;;;7.03;2.70;;;;;;;0.44;66.70;100091.63;5105958;27;20134;-71
2024/01/21 09:13:23;;;;;;;6.43;2.75;;;;;;;0.17;68.31;100051.44;5095791;27;20027;-71
2024/01/21 09:15:48;;;;;;;5.38;2.42;;;;;;;0.47;68.57;100104.34;5100913;27;20038;-70
2024/01/21 09:18:14;;;;;;;5.47;1.80;;;;;;;0.25;67.88;100066.56;5083435;27;20024;-71
2024/01/21 09:20:42;;;;;;;5.35;2.20;;;;;;;0.60;64.28;100113.34;5068046;27;20035;-69
2024/01/21 09:23:09;;;;;;;5.75;2.13;;;;;;;0.10;64.66;100044.84;5080854;27;20708;-70
2024/01/21 09:25:35;;;;;;;9.18;3.88;;;;;;;0.52;62.16;100105.88;5078889;27;20030;-69
2024/01/21 09:28:00;;;;;;;9.52;5.55;;;;;;;0.54;62.49;100111.78;5080351;27;20117;-70
2024/01/21 09:30:28;;;;;;;8.27;3.45;;;;;;;0.56;62.36;100101.53;5098528;27;20589;-70
2024/01/21 09:32:53;;;;;;;8.95;4.28;;;;;;;0.69;62.55;100096.88;5077300;27;20027;-70
2024/01/21 09:35:18;;;;;;;14.63;7.35;;;;;;;0.77;62.31;100094.94;5096010;27;20042;-70
2024/01/21 09:37:44;;;;;;;17.27;9.73;;;;;;;0.70;63.10;100088.31;5084564;27;20043;-69
2024/01/21 09:40:11;;;;;;;10.88;5.53;;;;;;;0.74;63.54;100088.16;5083547;27;20039;-68
2024/01/21 09:42:36;;;;;;;15.65;8.73;;;;;;;0.79;63.26;100090.59;5080309;27;20269;-68
2024/01/21 09:45:05;;;;;;;7.22;2.53;;;;;;;0.93;63.53;100095.28;5081432;27;20651;-69
2024/01/21 09:47:30;;;;;;;5.83;2.20;;;;;;;0.62;63.02;100055.28;5085494;27;20042;-67
2024/01/21 09:49:56;;;;;;;5.47;2.38;;;;;;;1.03;61.43;100090.72;5081210;27;20814;-69
2024/01/21 09:52:24;;;;;;;4.80;2.03;;;;;;;1.03;60.23;100096.69;5079498;27;21498;-69
2024/01/21 09:54:53;;;;;;;5.80;2.90;;;;;;;1.11;60.71;100099.00;5079650;27;20558;-70
2024/01/21 09:57:20;;;;;;;6.72;3.17;;;;;;;0.62;60.68;100027.13;5076492;27;20039;-69
2024/01/21 09:59:49;;;;;;;6.60;3.50;;;;;;;0.65;59.56;100027.00;5082334;27;20024;-69
2024/01/21 10:02:16;;;;;;;6.50;3.28;;;;;;;1.07;59.16;100093.13;5083268;27;20035;-69
2024/01/21 10:04:43;;;;;;;6.80;2.50;;;;;;;1.20;58.25;100092.75;5079105;27;20054;-69
2024/01/21 10:07:10;;;;;;;5.07;2.30;;;;;;;1.29;58.75;100097.59;5091766;27;20025;-69
2024/01/21 10:09:39;;;;;;;4.90;2.22;;;;;;;1.31;57.87;100083.84;5093505;27;20072;-71
2024/01/21 10:12:05;;;;;;;5.85;2.50;;;;;;;1.11;57.00;100040.06;5082783;27;20055;-70
2024/01/21 10:14:33;;;;;;;4.88;1.83;;;;;;;1.61;56.21;100083.72;5092647;27;20035;-70
2024/01/21 10:16:59;;;;;;;4.53;1.83;;;;;;;1.63;55.17;100096.47;5098911;27;20031;-70
2024/01/21 10:19:31;;;;;;;4.30;1.80;;;;;;;1.68;55.12;100104.84;5093954;27;20024;-70
2024/01/21 10:22:07;;;;;;;4.82;1.90;;;;;;;1.35;54.91;100040.97;5081060;27;20039;-69
2024/01/21 10:24:32;;;;;;;4.47;1.75;;;;;;;1.82;55.73;100099.25;5099113;27;20565;-70
2024/01/21 10:26:58;;;;;;;6.18;1.80;;;;;;;1.85;56.23;100083.75;5075494;27;20043;-69
2024/01/21 10:29:28;;;;;;;5.20;2.08;;;;;;;1.92;56.84;100088.63;5093178;27;20035;-69
2024/01/21 10:31:56;;;;;;;6.20;1.75;;;;;;;1.79;55.53;100048.91;5092555;27;20127;-69
2024/01/21 10:34:22;;;;;;;5.85;1.90;;;;;;;2.08;56.89;100067.53;5078063;27;20035;-69
2024/01/21 10:36:51;;;;;;;4.97;2.00;;;;;;;2.17;55.47;100062.06;5078034;27;20795;-69
2024/01/21 10:39:20;;;;;;;4.43;1.83;;;;;;;1.85;55.83;100005.06;5078431;27;20027;-68
2024/01/21 10:41:45;;;;;;;7.05;3.78;;;;;;;2.30;55.29;100062.47;5071977;27;20050;-70
2024/01/21 10:44:11;;;;;;;6.93;3.35;;;;;;;2.42;56.12;100063.75;5094720;27;20110;-69
2024/01/21 10:46:38;;;;;;;6.22;3.20;;;;;;;2.40;54.75;100065.53;5090757;27;20050;-69
2024/01/21 10:49:06;;;;;;;6.85;2.67;;;;;;;2.43;53.98;100062.84;5094794;27;20027;-69
2024/01/21 10:51:31;;;;;;;5.05;2.30;;;;;;;2.56;52.21;100088.91;5078594;27;20037;-68
2024/01/21 10:53:59;;;;;;;7.18;1.85;;;;;;;2.44;50.96;100091.03;5074869;27;20054;-68
2024/01/21 10:56:28;;;;;;;5.38;2.25;;;;;;;2.48;49.67;100079.75;5094530;27;20314;-70
2024/01/21 10:58:54;;;;;;;4.22;1.70;;;;;;;2.51;50.73;100081.38;5090374;27;20034;-70
2024/01/21 11:01:23;;;;;;;4.18;1.70;;;;;;;2.62;51.17;100073.25;5090124;27;20035;-70
2024/01/21 11:03:50;;;;;;;4.45;1.60;;;;;;;2.64;51.23;100064.59;5075312;27;21003;-70
2024/01/21 11:06:16;;;;;;;5.45;1.70;;;;;;;2.59;51.18;100057.97;5075901;27;20039;-68
2024/01/21 11:08:43;;;;;;;5.72;2.08;;;;;;;2.30;51.07;99993.19;5110628;27;20027;-70
2024/01/21 11:11:08;;;;;;;3.90;1.58;;;;;;;2.83;50.14;100063.88;5073031;27;20662;-70
2024/01/21 11:13:52;;;;;;;5.00;1.65;;;;;;;2.45;49.97;99989.19;5090355;27;20035;-70
2024/01/21 11:16:26;;;;;;;5.13;1.42;;;;;;;2.58;50.15;100000.63;5109589;27;20090;-70
2024/01/21 11:19:17;;;;;;;4.70;1.88;;;;;;;2.93;49.10;100049.78;5093025;27;20574;-70
2024/01/21 11:21:48;;;;;;;4.63;1.85;;;;;;;2.72;48.33;100015.50;5073541;27;20027;-69
2024/01/21 11:24:13;;;;;;;4.13;1.60;;;;;;;2.87;46.69;100030.31;5089456;27;20035;-68
2024/01/21 11:26:43;;;;;;;4.60;1.70;;;;;;;3.00;47.21;100040.09;5090297;27;20042;-69
2024/01/21 11:29:21;;;;;;;;;;;;;;;2.98;46.61;100034.19;5088505;27;20577;-69
2024/01/21 11:31:51;;;;;;;3.70;1.35;;;;;;;2.93;48.43;100028.41;5090785;27;20068;-69
2024/01/21 11:34:17;;;;;;;4.10;1.52;;;;;;;3.00;48.85;100027.25;5076580;27;20039;-70
2024/01/21 11:36:45;;;;;;;5.00;1.65;;;;;;;3.14;49.23;100035.25;5090014;27;20830;-70
2024/01/21 11:39:13;;;;;;;4.63;1.63;;;;;;;3.16;48.30;100025.72;5072673;27;20100;-70